PWSweather.com
Personal Weather Stations
Station Observations
WAIROAHB
Wairoa, Northern Hawkes Bay -NZ 4108

WairoaNorthern Hawkes Bay -NZ 4108

Lat: -39.04516934, Lon: 177.4263989

Elevation: 156

Station Type: WS3083

http://wairoa.net/weather/index.htm

Latest ConditionsUpdated 4:00:00 PM GMT+12:12 Wednesday, Aug 21, 2019
Currently Today's Max Today's Min Today's Average
Temperature 52.5°F11.4°C 54.9°F12.7°C 49.6°F9.8°C 51.3°F10.7°C
Dew Point 47.8°F8.8°C 48.6°F9.2°C 40.9°F4.9°C 42.8°F6.0°C
Winds 3.1 mph N5.0 kmh N 9.8 mph -15.8 kmh - - 2.2 mph 3.5 kmh
Wind Gusts 5.4 mph8.7 kmh 19.0 mph30.6 kmh - -
Humidity 84% 87% 61% 73%
Pressure 30.01 in1016.3 mb 30.11 in1019.6 mb 29.42 in996.3 mb -
Precipitation - 0.14 in3.6 mm - -
Hour Temp Dew Point Humidity Winds Wind Gusts Pressure Precip Precip Rate Daily Precip Total
04:00 PM 52.5°F11.4°C 47.8°F8.8°C 84% 3.1 mph N5.0 kmh N 5.4 mph8.7 kmh 30.01 in1016.3 mb 0.00 in0.0 mm 0.00 in0.0 mm 0.14 in3.6 mm
03:50 PM 52.5°F11.4°C 47.8°F8.8°C 84% 3.1 mph N5.0 kmh N 3.8 mph6.1 kmh 30.00 in1015.9 mb 0.00 in0.0 mm 0.00 in0.0 mm 0.14 in3.6 mm
03:40 PM 52.7°F11.5°C 48.0°F8.9°C 84% 2.2 mph NNW3.5 kmh NNW 4.5 mph7.2 kmh 30.00 in1015.9 mb 0.00 in0.0 mm 0.00 in0.0 mm 0.14 in3.6 mm
03:30 PM 52.7°F11.5°C 48.3°F9.1°C 85% 2.2 mph N3.5 kmh N 3.8 mph6.1 kmh 30.00 in1015.9 mb 0.01 in0.3 mm 0.00 in0.0 mm 0.14 in3.6 mm
03:20 PM 52.5°F11.4°C 47.8°F8.8°C 84% 2.2 mph N3.5 kmh N 5.4 mph8.7 kmh 30.00 in1015.9 mb 0.01 in0.3 mm 0.00 in0.0 mm 0.14 in3.6 mm
03:10 PM 52.7°F11.5°C 48.6°F9.2°C 86% 2.2 mph N3.5 kmh N 3.8 mph6.1 kmh 30.01 in1016.3 mb 0.02 in0.5 mm 0.00 in0.0 mm 0.14 in3.6 mm
03:00 PM 52.5°F11.4°C 48.5°F9.2°C 86% 3.1 mph N5.0 kmh N 5.4 mph8.7 kmh 30.01 in1016.3 mb 0.02 in0.5 mm 0.00 in0.0 mm 0.14 in3.6 mm
02:50 PM 52.3°F11.3°C 48.3°F9.1°C 86% 3.8 mph N6.1 kmh N 5.4 mph8.7 kmh 30.01 in1016.3 mb 0.04 in1.0 mm 0.00 in0.0 mm 0.14 in3.6 mm
02:40 PM 52.3°F11.3°C 48.6°F9.2°C 87% 3.8 mph NNW6.1 kmh NNW 5.4 mph8.7 kmh 30.01 in1016.3 mb 0.04 in1.0 mm 0.00 in0.0 mm 0.14 in3.6 mm
02:30 PM 52.3°F11.3°C 48.3°F9.1°C 86% 3.1 mph N5.0 kmh N 6.0 mph9.7 kmh 30.02 in1016.6 mb 0.04 in1.0 mm 0.00 in0.0 mm 0.13 in3.3 mm
02:20 PM 52.3°F11.3°C 48.3°F9.1°C 86% 4.5 mph N7.2 kmh N 6.9 mph11.1 kmh 30.02 in1016.6 mb 0.04 in1.0 mm 0.00 in0.0 mm 0.13 in3.3 mm
02:10 PM 52.3°F11.3°C 48.3°F9.1°C 86% 2.2 mph N3.5 kmh N 5.4 mph8.7 kmh 30.02 in1016.6 mb 0.04 in1.0 mm 0.12 in3.0 mm 0.12 in3.0 mm
02:00 PM 52.2°F11.2°C 47.8°F8.8°C 85% 2.2 mph N3.5 kmh N 5.4 mph8.7 kmh 30.02 in1016.6 mb 0.02 in0.5 mm 0.00 in0.0 mm 0.11 in2.8 mm
01:50 PM 52.2°F11.2°C 47.8°F8.8°C 85% 3.1 mph N5.0 kmh N 5.4 mph8.7 kmh 30.02 in1016.6 mb 0.11 in2.8 mm 0.00 in0.0 mm 0.11 in2.8 mm
01:40 PM 52.3°F11.3°C 47.7°F8.7°C 84% 3.8 mph N6.1 kmh N 5.4 mph8.7 kmh 30.02 in1016.6 mb 0.11 in2.8 mm 0.12 in3.0 mm 0.11 in2.8 mm
01:30 PM 52.5°F11.4°C 47.5°F8.6°C 83% 3.1 mph NNE5.0 kmh NNE 4.5 mph7.2 kmh 30.02 in1016.6 mb 0.09 in2.3 mm 0.00 in0.0 mm 0.09 in2.3 mm
01:20 PM 52.7°F11.5°C 48.0°F8.9°C 84% 2.2 mph N3.5 kmh N 3.8 mph6.1 kmh 30.02 in1016.6 mb 0.09 in2.3 mm 0.06 in1.5 mm 0.09 in2.3 mm
01:10 PM 52.7°F11.5°C 48.0°F8.9°C 84% 2.2 mph N3.5 kmh N 3.8 mph6.1 kmh 30.02 in1016.6 mb 0.08 in2.0 mm 0.00 in0.0 mm 0.08 in2.0 mm
01:00 PM 52.7°F11.5°C 47.7°F8.7°C 83% 2.2 mph NNE3.5 kmh NNE 3.8 mph6.1 kmh 30.03 in1016.9 mb 0.08 in2.0 mm 0.08 in2.0 mm 0.08 in2.0 mm
12:57 PM 49.6°F9.8°C 41.3°F5.2°C 73% 1.6 mph S2.6 kmh S 2.2 mph3.5 kmh 30.11 in1019.6 mb 0.00 in0.0 mm 0.00 in0.0 mm 0.00 in0.0 mm
12:50 PM 49.8°F9.9°C 41.5°F5.3°C 73% 0.7 mph SW1.1 kmh SW 1.6 mph2.6 kmh 29.42 in996.3 mb 0.00 in0.0 mm 0.00 in0.0 mm 0.00 in0.0 mm
12:40 PM 49.8°F9.9°C 41.5°F5.3°C 73% 0.7 mph SW1.1 kmh SW 1.6 mph2.6 kmh 29.42 in996.3 mb 0.00 in0.0 mm 0.00 in0.0 mm 0.00 in0.0 mm
12:30 PM 49.8°F9.9°C 41.5°F5.3°C 73% 0.7 mph SW1.1 kmh SW 1.6 mph2.6 kmh 29.42 in996.3 mb 0.00 in0.0 mm 0.00 in0.0 mm 0.00 in0.0 mm
12:20 PM 49.8°F9.9°C 41.5°F5.3°C 73% 0.7 mph SW1.1 kmh SW 1.6 mph2.6 kmh 29.42 in996.3 mb 0.00 in0.0 mm 0.00 in0.0 mm 0.00 in0.0 mm
12:10 PM 49.8°F9.9°C 41.5°F5.3°C 73% 0.7 mph SW1.1 kmh SW 1.6 mph2.6 kmh 29.42 in996.3 mb 0.00 in0.0 mm 0.00 in0.0 mm 0.00 in0.0 mm
12:00 PM 49.8°F9.9°C 41.5°F5.3°C 73% 0.7 mph SW1.1 kmh SW 1.6 mph2.6 kmh 29.42 in996.3 mb 0.00 in0.0 mm 0.00 in0.0 mm 0.00 in0.0 mm
11:50 AM 49.8°F9.9°C 41.5°F5.3°C 73% 0.7 mph SW1.1 kmh SW 1.6 mph2.6 kmh 29.42 in996.3 mb 0.00 in0.0 mm 0.00 in0.0 mm 0.00 in0.0 mm
11:40 AM 49.8°F9.9°C 41.5°F5.3°C 73% 0.7 mph SW1.1 kmh SW 1.6 mph2.6 kmh 29.42 in996.3 mb 0.00 in0.0 mm 0.00 in0.0 mm 0.00 in0.0 mm
11:30 AM 49.8°F9.9°C 41.5°F5.3°C 73% 0.7 mph SW1.1 kmh SW 1.6 mph2.6 kmh 29.42 in996.3 mb 0.00 in0.0 mm 0.00 in0.0 mm 0.00 in0.0 mm
11:20 AM 49.8°F9.9°C 41.5°F5.3°C 73% 0.7 mph SW1.1 kmh SW 1.6 mph2.6 kmh 29.42 in996.3 mb 0.00 in0.0 mm 0.00 in0.0 mm 0.00 in0.0 mm
11:10 AM 49.8°F9.9°C 41.5°F5.3°C 73% 0.7 mph SW1.1 kmh SW 1.6 mph2.6 kmh 29.42 in996.3 mb 0.00 in0.0 mm 0.00 in0.0 mm 0.00 in0.0 mm
11:00 AM 49.8°F9.9°C 41.5°F5.3°C 73% 0.7 mph SW1.1 kmh SW 1.6 mph2.6 kmh 29.42 in996.3 mb 0.00 in0.0 mm 0.00 in0.0 mm 0.00 in0.0 mm
10:50 AM 49.8°F9.9°C 41.5°F5.3°C 73% 0.7 mph SW1.1 kmh SW 1.6 mph2.6 kmh 29.42 in996.3 mb 0.00 in0.0 mm 0.00 in0.0 mm 0.00 in0.0 mm
10:40 AM 49.8°F9.9°C 41.5°F5.3°C 73% 0.7 mph SW1.1 kmh SW 1.6 mph2.6 kmh 29.42 in996.3 mb 0.00 in0.0 mm 0.00 in0.0 mm 0.00 in0.0 mm
10:30 AM 49.8°F9.9°C 41.5°F5.3°C 73% 0.7 mph SW1.1 kmh SW 1.6 mph2.6 kmh 29.42 in996.3 mb 0.00 in0.0 mm 0.00 in0.0 mm 0.00 in0.0 mm
10:20 AM 49.8°F9.9°C 41.5°F5.3°C 73% 0.7 mph SW1.1 kmh SW 1.6 mph2.6 kmh 29.42 in996.3 mb 0.00 in0.0 mm 0.00 in0.0 mm 0.00 in0.0 mm
10:10 AM 49.8°F9.9°C 41.5°F5.3°C 73% 0.7 mph SW1.1 kmh SW 1.6 mph2.6 kmh 29.42 in996.3 mb 0.00 in0.0 mm 0.00 in0.0 mm 0.00 in0.0 mm
10:00 AM 49.8°F9.9°C 41.5°F5.3°C 73% 0.7 mph SW1.1 kmh SW 1.6 mph2.6 kmh 29.42 in996.3 mb 0.00 in0.0 mm 0.00 in0.0 mm 0.00 in0.0 mm
09:50 AM 49.8°F9.9°C 41.5°F5.3°C 73% 0.7 mph SW1.1 kmh SW 1.6 mph2.6 kmh 29.42 in996.3 mb 0.00 in0.0 mm 0.00 in0.0 mm 0.00 in0.0 mm
09:40 AM 49.8°F9.9°C 41.5°F5.3°C 73% 0.7 mph SW1.1 kmh SW 1.6 mph2.6 kmh 29.42 in996.3 mb 0.00 in0.0 mm 0.00 in0.0 mm 0.00 in0.0 mm
09:30 AM 49.8°F9.9°C 41.5°F5.3°C 73% 0.7 mph SW1.1 kmh SW 1.6 mph2.6 kmh 29.42 in996.3 mb 0.00 in0.0 mm 0.00 in0.0 mm 0.00 in0.0 mm
09:20 AM 49.8°F9.9°C 41.5°F5.3°C 73% 0.7 mph SW1.1 kmh SW 1.6 mph2.6 kmh 29.42 in996.3 mb 0.00 in0.0 mm 0.00 in0.0 mm 0.00 in0.0 mm
09:10 AM 49.8°F9.9°C 41.5°F5.3°C 73% 0.7 mph SW1.1 kmh SW 1.6 mph2.6 kmh 29.42 in996.3 mb 0.00 in0.0 mm 0.00 in0.0 mm 0.00 in0.0 mm
09:00 AM 49.8°F9.9°C 41.5°F5.3°C 73% 0.7 mph SW1.1 kmh SW 1.6 mph2.6 kmh 29.42 in996.3 mb 0.00 in0.0 mm 0.00 in0.0 mm 0.00 in0.0 mm
08:50 AM 49.8°F9.9°C 41.5°F5.3°C 73% 0.7 mph SW1.1 kmh SW 1.6 mph2.6 kmh 29.42 in996.3 mb 0.00 in0.0 mm 0.00 in0.0 mm 0.00 in0.0 mm
08:40 AM 49.8°F9.9°C 41.5°F5.3°C 73% 0.7 mph SW1.1 kmh SW 1.6 mph2.6 kmh 29.42 in996.3 mb 0.00 in0.0 mm 0.00 in0.0 mm 0.00 in0.0 mm
08:30 AM 49.8°F9.9°C 41.5°F5.3°C 73% 0.7 mph SW1.1 kmh SW 1.6 mph2.6 kmh 29.42 in996.3 mb 0.00 in0.0 mm 0.00 in0.0 mm 0.00 in0.0 mm
08:20 AM 49.8°F9.9°C 41.5°F5.3°C 73% 0.7 mph SW1.1 kmh SW 1.6 mph2.6 kmh 29.42 in996.3 mb 0.00 in0.0 mm 0.00 in0.0 mm 0.00 in0.0 mm
08:10 AM 49.8°F9.9°C 41.5°F5.3°C 73% 0.7 mph SW1.1 kmh SW 1.6 mph2.6 kmh 29.42 in996.3 mb 0.00 in0.0 mm 0.00 in0.0 mm 0.00 in0.0 mm
08:00 AM 49.8°F9.9°C 41.5°F5.3°C 73% 0.7 mph SW1.1 kmh SW 1.6 mph2.6 kmh 29.42 in996.3 mb 0.00 in0.0 mm 0.00 in0.0 mm 0.00 in0.0 mm
07:50 AM 49.8°F9.9°C 41.5°F5.3°C 73% 0.7 mph SW1.1 kmh SW 1.6 mph2.6 kmh 29.42 in996.3 mb 0.00 in0.0 mm 0.00 in0.0 mm 0.00 in0.0 mm
07:40 AM 49.8°F9.9°C 41.5°F5.3°C 73% 0.7 mph SW1.1 kmh SW 1.6 mph2.6 kmh 29.42 in996.3 mb 0.00 in0.0 mm 0.00 in0.0 mm 0.00 in0.0 mm
07:30 AM 49.8°F9.9°C 41.5°F5.3°C 73% 0.7 mph SW1.1 kmh SW 1.6 mph2.6 kmh 29.42 in996.3 mb 0.00 in0.0 mm 0.00 in0.0 mm 0.00 in0.0 mm
07:20 AM 49.8°F9.9°C 41.5°F5.3°C 73% 0.7 mph SW1.1 kmh SW 1.6 mph2.6 kmh 29.42 in996.3 mb 0.00 in0.0 mm 0.00 in0.0 mm 0.00 in0.0 mm
07:10 AM 49.8°F9.9°C 41.5°F5.3°C 73% 0.7 mph SW1.1 kmh SW 1.6 mph2.6 kmh 29.42 in996.3 mb 0.00 in0.0 mm 0.00 in0.0 mm 0.00 in0.0 mm
07:00 AM 49.8°F9.9°C 41.5°F5.3°C 73% 0.7 mph SW1.1 kmh SW 1.6 mph2.6 kmh 29.42 in996.3 mb 0.00 in0.0 mm 0.00 in0.0 mm 0.00 in0.0 mm
06:50 AM 49.8°F9.9°C 41.5°F5.3°C 73% 0.7 mph SW1.1 kmh SW 1.6 mph2.6 kmh 29.42 in996.3 mb 0.00 in0.0 mm 0.00 in0.0 mm 0.00 in0.0 mm
06:40 AM 49.8°F9.9°C 41.5°F5.3°C 73% 0.7 mph SW1.1 kmh SW 1.6 mph2.6 kmh 29.42 in996.3 mb 0.00 in0.0 mm 0.00 in0.0 mm 0.00 in0.0 mm
06:30 AM 49.8°F9.9°C 41.5°F5.3°C 73% 0.7 mph SW1.1 kmh SW 1.6 mph2.6 kmh 29.42 in996.3 mb 0.00 in0.0 mm 0.00 in0.0 mm 0.00 in0.0 mm
06:20 AM 49.8°F9.9°C 41.5°F5.3°C 73% 0.7 mph SW1.1 kmh SW 1.6 mph2.6 kmh 29.42 in996.3 mb 0.00 in0.0 mm 0.00 in0.0 mm 0.00 in0.0 mm
06:10 AM 49.8°F9.9°C 41.5°F5.3°C 73% 0.7 mph SW1.1 kmh SW 1.6 mph2.6 kmh 29.42 in996.3 mb 0.00 in0.0 mm 0.00 in0.0 mm 0.00 in0.0 mm
06:00 AM 49.8°F9.9°C 41.5°F5.3°C 73% 0.7 mph SW1.1 kmh SW 1.6 mph2.6 kmh 29.42 in996.3 mb 0.00 in0.0 mm 0.00 in0.0 mm 0.00 in0.0 mm
05:50 AM 49.8°F9.9°C 41.5°F5.3°C 73% 0.7 mph SW1.1 kmh SW 1.6 mph2.6 kmh 29.42 in996.3 mb 0.00 in0.0 mm 0.00 in0.0 mm 0.00 in0.0 mm
05:40 AM 49.8°F9.9°C 41.5°F5.3°C 73% 0.7 mph SW1.1 kmh SW 1.6 mph2.6 kmh 29.42 in996.3 mb 0.00 in0.0 mm 0.00 in0.0 mm 0.00 in0.0 mm
05:30 AM 50.0°F10.0°C 41.7°F5.4°C 73% Calm Calm 2.2 mph3.5 kmh 29.42 in996.3 mb 0.00 in0.0 mm 0.00 in0.0 mm 0.00 in0.0 mm
05:20 AM 49.8°F9.9°C 41.5°F5.3°C 73% 1.6 mph SSW2.6 kmh SSW 3.8 mph6.1 kmh 29.42 in996.3 mb 0.00 in0.0 mm 0.00 in0.0 mm 0.00 in0.0 mm
05:10 AM 49.6°F9.8°C 41.3°F5.2°C 73% 1.6 mph SW2.6 kmh SW 3.1 mph5.0 kmh 29.43 in996.6 mb 0.00 in0.0 mm 0.00 in0.0 mm 0.00 in0.0 mm
05:00 AM 49.8°F9.9°C 41.2°F5.1°C 72% 2.2 mph SW3.5 kmh SW 2.2 mph3.5 kmh 29.43 in996.6 mb 0.00 in0.0 mm 0.00 in0.0 mm 0.00 in0.0 mm
04:50 AM 50.2°F10.1°C 41.1°F5.1°C 71% Calm Calm 0.7 mph1.1 kmh 29.44 in997.0 mb 0.00 in0.0 mm 0.00 in0.0 mm 0.00 in0.0 mm
04:40 AM 50.4°F10.2°C 41.3°F5.2°C 71% Calm Calm 2.2 mph3.5 kmh 29.43 in996.6 mb 0.00 in0.0 mm 0.00 in0.0 mm 0.00 in0.0 mm
04:30 AM 50.4°F10.2°C 41.0°F5.0°C 70% 0.7 mph E1.1 kmh E 1.6 mph2.6 kmh 29.44 in997.0 mb 0.00 in0.0 mm 0.00 in0.0 mm 0.00 in0.0 mm
04:20 AM 51.1°F10.6°C 41.6°F5.3°C 70% 0.7 mph E1.1 kmh E 2.2 mph3.5 kmh 29.44 in997.0 mb 0.00 in0.0 mm 0.00 in0.0 mm 0.00 in0.0 mm
04:10 AM 51.3°F10.7°C 41.8°F5.4°C 70% 1.6 mph E2.6 kmh E 3.1 mph5.0 kmh 29.44 in997.0 mb 0.00 in0.0 mm 0.00 in0.0 mm 0.00 in0.0 mm
04:00 AM 51.4°F10.8°C 42.0°F5.6°C 70% 2.2 mph E3.5 kmh E 5.4 mph8.7 kmh 29.44 in997.0 mb 0.00 in0.0 mm 0.00 in0.0 mm 0.00 in0.0 mm
03:50 AM 51.6°F10.9°C 42.2°F5.7°C 70% 3.8 mph E6.1 kmh E 6.0 mph9.7 kmh 29.45 in997.3 mb 0.00 in0.0 mm 0.00 in0.0 mm 0.00 in0.0 mm
03:40 AM 51.4°F10.8°C 42.0°F5.6°C 70% 2.2 mph ESE3.5 kmh ESE 5.4 mph8.7 kmh 29.45 in997.3 mb 0.00 in0.0 mm 0.00 in0.0 mm 0.00 in0.0 mm
03:30 AM 51.8°F11.0°C 42.0°F5.6°C 69% 2.2 mph ESE3.5 kmh ESE 3.8 mph6.1 kmh 29.45 in997.3 mb 0.00 in0.0 mm 0.00 in0.0 mm 0.00 in0.0 mm
03:20 AM 52.3°F11.3°C 42.5°F5.8°C 69% 1.6 mph SE2.6 kmh SE 3.8 mph6.1 kmh 29.46 in997.6 mb 0.00 in0.0 mm 0.00 in0.0 mm 0.00 in0.0 mm
03:10 AM 53.2°F11.8°C 42.6°F5.9°C 67% 3.1 mph E5.0 kmh E 7.6 mph12.2 kmh 29.47 in998.0 mb 0.00 in0.0 mm 0.00 in0.0 mm 0.00 in0.0 mm
03:00 AM 53.8°F12.1°C 42.7°F5.9°C 66% 6.0 mph ENE9.7 kmh ENE 7.6 mph12.2 kmh 29.46 in997.6 mb 0.00 in0.0 mm 0.00 in0.0 mm 0.00 in0.0 mm
02:50 AM 54.5°F12.5°C 41.8°F5.4°C 62% 4.5 mph NE7.2 kmh NE 8.3 mph13.4 kmh 29.47 in998.0 mb 0.00 in0.0 mm 0.00 in0.0 mm 0.00 in0.0 mm
02:40 AM 54.9°F12.7°C 41.7°F5.4°C 61% 7.6 mph NE12.2 kmh NE 11.4 mph18.3 kmh 29.48 in998.3 mb 0.00 in0.0 mm 0.00 in0.0 mm 0.00 in0.0 mm
02:30 AM 54.7°F12.6°C 41.5°F5.3°C 61% 8.3 mph NE13.4 kmh NE 11.4 mph18.3 kmh 29.49 in998.6 mb 0.00 in0.0 mm 0.00 in0.0 mm 0.00 in0.0 mm
02:20 AM 54.9°F12.7°C 41.7°F5.4°C 61% 6.0 mph NNE9.7 kmh NNE 15.2 mph24.5 kmh 29.49 in998.6 mb 0.00 in0.0 mm 0.00 in0.0 mm 0.00 in0.0 mm
02:10 AM 54.9°F12.7°C 41.7°F5.4°C 61% 9.8 mph NNE15.8 kmh NNE 13.6 mph21.9 kmh 29.50 in999.0 mb 0.00 in0.0 mm 0.00 in0.0 mm 0.00 in0.0 mm
02:00 AM 54.5°F12.5°C 41.3°F5.2°C 61% 6.0 mph NNE9.7 kmh NNE 12.1 mph19.5 kmh 29.51 in999.3 mb 0.00 in0.0 mm 0.00 in0.0 mm 0.00 in0.0 mm
01:50 AM 54.0°F12.2°C 42.5°F5.8°C 65% 9.2 mph NNE14.8 kmh NNE 19.0 mph30.6 kmh 29.51 in999.3 mb 0.00 in0.0 mm 0.00 in0.0 mm 0.00 in0.0 mm
01:40 AM 53.2°F11.8°C 42.2°F5.7°C 66% 5.4 mph NE8.7 kmh NE 11.4 mph18.3 kmh 29.52 in999.7 mb 0.00 in0.0 mm 0.00 in0.0 mm 0.00 in0.0 mm
01:30 AM 53.1°F11.7°C 42.4°F5.8°C 67% 5.4 mph NNE8.7 kmh NNE 8.3 mph13.4 kmh 29.52 in999.7 mb 0.00 in0.0 mm 0.00 in0.0 mm 0.00 in0.0 mm
01:20 AM 53.2°F11.8°C 42.2°F5.7°C 66% 3.1 mph NE5.0 kmh NE 9.2 mph14.8 kmh 29.52 in999.7 mb 0.00 in0.0 mm 0.00 in0.0 mm 0.00 in0.0 mm
01:10 AM 53.6°F12.0°C 41.7°F5.4°C 64% 6.0 mph NE9.7 kmh NE 11.4 mph18.3 kmh 29.53 in1000.0 mb 0.00 in0.0 mm 0.00 in0.0 mm 0.00 in0.0 mm
01:00 AM 53.6°F12.0°C 41.3°F5.2°C 63% 6.0 mph NE9.7 kmh NE 9.8 mph15.8 kmh 29.53 in1000.0 mb 0.00 in0.0 mm 0.00 in0.0 mm 0.00 in0.0 mm
12:50 AM 53.8°F12.1°C 41.5°F5.3°C 63% 3.1 mph NE5.0 kmh NE 9.2 mph14.8 kmh 29.53 in1000.0 mb 0.00 in0.0 mm 0.00 in0.0 mm 0.00 in0.0 mm
12:40 AM 53.8°F12.1°C 41.1°F5.1°C 62% 6.0 mph NE9.7 kmh NE 10.7 mph17.2 kmh 29.54 in1000.3 mb 0.00 in0.0 mm 0.00 in0.0 mm 0.00 in0.0 mm
12:30 AM 53.4°F11.9°C 41.2°F5.1°C 63% 2.2 mph ENE3.5 kmh ENE 6.0 mph9.7 kmh 29.55 in1000.7 mb 0.00 in0.0 mm 0.00 in0.0 mm 0.00 in0.0 mm
12:20 AM 53.6°F12.0°C 40.9°F4.9°C 62% 1.6 mph NE2.6 kmh NE 6.9 mph11.1 kmh 29.55 in1000.7 mb 0.00 in0.0 mm 0.00 in0.0 mm 0.00 in0.0 mm
12:10 AM 53.6°F12.0°C 40.9°F4.9°C 62% 4.5 mph NE7.2 kmh NE 7.6 mph12.2 kmh 29.55 in1000.7 mb 0.00 in0.0 mm 0.00 in0.0 mm 0.00 in0.0 mm
12:00 AM 53.6°F12.0°C 40.9°F4.9°C 62% 4.5 mph NE7.2 kmh NE 13.0 mph20.9 kmh 29.56 in1001.0 mb 0.00 in0.0 mm 0.00 in0.0 mm 0.00 in0.0 mm